sensor_id;sensor_type;location;lat;lon;timestamp;P1;durP1;ratioP1;P2;durP2;ratioP2
8893;SDS011;4483;48.622;9.230;2022-09-23T00:00:06;3.57;;;2.17;;
8893;SDS011;4483;48.622;9.230;2022-09-23T00:02:34;2.10;;;2.00;;
8893;SDS011;4483;48.622;9.230;2022-09-23T00:05:02;3.13;;;2.10;;
8893;SDS011;4483;48.622;9.230;2022-09-23T00:07:30;2.10;;;2.00;;
8893;SDS011;4483;48.622;9.230;2022-09-23T00:09:56;6.03;;;2.20;;
8893;SDS011;4483;48.622;9.230;2022-09-23T00:12:25;2.53;;;2.33;;
8893;SDS011;4483;48.622;9.230;2022-09-23T00:14:52;4.00;;;2.37;;
8893;SDS011;4483;48.622;9.230;2022-09-23T00:17:20;2.43;;;2.23;;
8893;SDS011;4483;48.622;9.230;2022-09-23T00:19:48;3.63;;;2.50;;
8893;SDS011;4483;48.622;9.230;2022-09-23T00:22:15;2.07;;;1.97;;
8893;SDS011;4483;48.622;9.230;2022-09-23T00:24:43;4.93;;;2.47;;
8893;SDS011;4483;48.622;9.230;2022-09-23T00:27:10;3.23;;;2.47;;
8893;SDS011;4483;48.622;9.230;2022-09-23T00:29:39;2.60;;;2.17;;
8893;SDS011;4483;48.622;9.230;2022-09-23T00:32:06;2.40;;;2.27;;
8893;SDS011;4483;48.622;9.230;2022-09-23T00:34:38;2.20;;;2.10;;
8893;SDS011;4483;48.622;9.230;2022-09-23T00:37:06;2.67;;;2.13;;
8893;SDS011;4483;48.622;9.230;2022-09-23T00:39:37;2.27;;;2.07;;
8893;SDS011;4483;48.622;9.230;2022-09-23T00:42:08;4.33;;;2.40;;
8893;SDS011;4483;48.622;9.230;2022-09-23T00:44:49;2.90;;;2.70;;
8893;SDS011;4483;48.622;9.230;2022-09-23T00:47:19;2.23;;;2.03;;
8893;SDS011;4483;48.622;9.230;2022-09-23T00:49:52;2.60;;;2.40;;
8893;SDS011;4483;48.622;9.230;2022-09-23T00:52:26;2.60;;;2.40;;
8893;SDS011;4483;48.622;9.230;2022-09-23T00:54:54;2.20;;;2.10;;
8893;SDS011;4483;48.622;9.230;2022-09-23T00:57:23;2.90;;;2.20;;
8893;SDS011;4483;48.622;9.230;2022-09-23T00:59:53;4.97;;;2.63;;
8893;SDS011;4483;48.622;9.230;2022-09-23T01:02:20;2.40;;;2.30;;
8893;SDS011;4483;48.622;9.230;2022-09-23T01:04:48;4.00;;;1.97;;
8893;SDS011;4483;48.622;9.230;2022-09-23T01:07:15;2.83;;;2.20;;
8893;SDS011;4483;48.622;9.230;2022-09-23T01:09:42;2.43;;;2.23;;
8893;SDS011;4483;48.622;9.230;2022-09-23T01:12:13;4.57;;;2.13;;
8893;SDS011;4483;48.622;9.230;2022-09-23T01:14:55;3.53;;;2.20;;
8893;SDS011;4483;48.622;9.230;2022-09-23T01:17:30;2.93;;;2.27;;
8893;SDS011;4483;48.622;9.230;2022-09-23T01:20:12;2.00;;;1.90;;
8893;SDS011;4483;48.622;9.230;2022-09-23T01:23:05;2.30;;;2.20;;
8893;SDS011;4483;48.622;9.230;2022-09-23T01:25:52;4.17;;;2.03;;
8893;SDS011;4483;48.622;9.230;2022-09-23T01:28:38;3.60;;;2.30;;
8893;SDS011;4483;48.622;9.230;2022-09-23T01:31:25;2.20;;;2.10;;
8893;SDS011;4483;48.622;9.230;2022-09-23T01:34:02;2.60;;;2.40;;
8893;SDS011;4483;48.622;9.230;2022-09-23T01:36:37;3.03;;;2.00;;
8893;SDS011;4483;48.622;9.230;2022-09-23T01:39:08;4.53;;;2.07;;
8893;SDS011;4483;48.622;9.230;2022-09-23T01:41:46;2.50;;;2.30;;
8893;SDS011;4483;48.622;9.230;2022-09-23T01:44:19;2.63;;;2.43;;
8893;SDS011;4483;48.622;9.230;2022-09-23T01:46:51;2.30;;;2.20;;
8893;SDS011;4483;48.622;9.230;2022-09-23T01:49:24;4.37;;;2.40;;
8893;SDS011;4483;48.622;9.230;2022-09-23T01:51:56;2.13;;;1.90;;
8893;SDS011;4483;48.622;9.230;2022-09-23T01:54:27;2.50;;;2.30;;
8893;SDS011;4483;48.622;9.230;2022-09-23T01:57:00;2.50;;;2.30;;
8893;SDS011;4483;48.622;9.230;2022-09-23T01:59:31;2.03;;;1.93;;
8893;SDS011;4483;48.622;9.230;2022-09-23T02:02:02;2.57;;;2.20;;
8893;SDS011;4483;48.622;9.230;2022-09-23T02:04:33;3.27;;;2.30;;
8893;SDS011;4483;48.622;9.230;2022-09-23T02:07:04;2.33;;;2.20;;
8893;SDS011;4483;48.622;9.230;2022-09-23T02:09:40;3.90;;;2.13;;
8893;SDS011;4483;48.622;9.230;2022-09-23T02:12:10;2.80;;;2.23;;
8893;SDS011;4483;48.622;9.230;2022-09-23T02:14:43;2.20;;;2.00;;
8893;SDS011;4483;48.622;9.230;2022-09-23T02:17:16;2.63;;;2.10;;
8893;SDS011;4483;48.622;9.230;2022-09-23T02:19:50;2.40;;;1.90;;
8893;SDS011;4483;48.622;9.230;2022-09-23T02:22:21;4.20;;;2.10;;
8893;SDS011;4483;48.622;9.230;2022-09-23T02:24:51;2.20;;;2.00;;
8893;SDS011;4483;48.622;9.230;2022-09-23T02:27:19;2.67;;;2.00;;
8893;SDS011;4483;48.622;9.230;2022-09-23T02:29:53;2.40;;;2.20;;
8893;SDS011;4483;48.622;9.230;2022-09-23T02:32:27;3.03;;;2.20;;
8893;SDS011;4483;48.622;9.230;2022-09-23T02:34:59;2.07;;;1.97;;
8893;SDS011;4483;48.622;9.230;2022-09-23T02:37:36;3.30;;;1.90;;
8893;SDS011;4483;48.622;9.230;2022-09-23T02:40:11;1.93;;;1.73;;
8893;SDS011;4483;48.622;9.230;2022-09-23T02:42:58;2.20;;;2.00;;
8893;SDS011;4483;48.622;9.230;2022-09-23T02:45:44;2.00;;;1.90;;
8893;SDS011;4483;48.622;9.230;2022-09-23T02:48:13;2.27;;;2.13;;
8893;SDS011;4483;48.622;9.230;2022-09-23T02:50:43;2.13;;;2.00;;
8893;SDS011;4483;48.622;9.230;2022-09-23T02:53:12;2.10;;;2.00;;
8893;SDS011;4483;48.622;9.230;2022-09-23T02:55:39;2.10;;;1.90;;
8893;SDS011;4483;48.622;9.230;2022-09-23T02:58:07;2.57;;;2.10;;
8893;SDS011;4483;48.622;9.230;2022-09-23T03:00:42;2.13;;;2.03;;
8893;SDS011;4483;48.622;9.230;2022-09-23T03:03:25;2.10;;;1.90;;
8893;SDS011;4483;48.622;9.230;2022-09-23T03:06:07;2.03;;;1.93;;
8893;SDS011;4483;48.622;9.230;2022-09-23T03:08:42;2.80;;;2.10;;
8893;SDS011;4483;48.622;9.230;2022-09-23T03:11:14;2.20;;;2.00;;
8893;SDS011;4483;48.622;9.230;2022-09-23T03:13:49;2.80;;;2.30;;
8893;SDS011;4483;48.622;9.230;2022-09-23T03:16:29;3.50;;;2.20;;
8893;SDS011;4483;48.622;9.230;2022-09-23T03:19:10;2.43;;;2.20;;
8893;SDS011;4483;48.622;9.230;2022-09-23T03:21:48;5.83;;;2.30;;
8893;SDS011;4483;48.622;9.230;2022-09-23T03:24:20;2.30;;;2.10;;
8893;SDS011;4483;48.622;9.230;2022-09-23T03:26:48;2.93;;;2.20;;
8893;SDS011;4483;48.622;9.230;2022-09-23T03:29:18;2.97;;;2.03;;
8893;SDS011;4483;48.622;9.230;2022-09-23T03:31:47;2.43;;;2.33;;
8893;SDS011;4483;48.622;9.230;2022-09-23T03:34:17;2.10;;;2.00;;
8893;SDS011;4483;48.622;9.230;2022-09-23T03:36:48;2.00;;;1.90;;
8893;SDS011;4483;48.622;9.230;2022-09-23T03:39:30;4.80;;;2.17;;
8893;SDS011;4483;48.622;9.230;2022-09-23T03:42:02;2.63;;;2.30;;
8893;SDS011;4483;48.622;9.230;2022-09-23T03:44:40;3.97;;;2.00;;
8893;SDS011;4483;48.622;9.230;2022-09-23T03:47:08;2.27;;;2.10;;
8893;SDS011;4483;48.622;9.230;2022-09-23T03:49:37;2.70;;;2.00;;
8893;SDS011;4483;48.622;9.230;2022-09-23T03:52:06;2.43;;;2.33;;
8893;SDS011;4483;48.622;9.230;2022-09-23T03:54:32;4.77;;;2.03;;
8893;SDS011;4483;48.622;9.230;2022-09-23T03:56:59;2.40;;;2.20;;
8893;SDS011;4483;48.622;9.230;2022-09-23T03:59:27;2.30;;;2.10;;
8893;SDS011;4483;48.622;9.230;2022-09-23T04:01:55;2.37;;;2.00;;
8893;SDS011;4483;48.622;9.230;2022-09-23T04:04:23;2.17;;;2.07;;
8893;SDS011;4483;48.622;9.230;2022-09-23T04:06:51;2.30;;;2.10;;
8893;SDS011;4483;48.622;9.230;2022-09-23T04:09:18;4.93;;;2.43;;
8893;SDS011;4483;48.622;9.230;2022-09-23T04:11:45;4.10;;;2.33;;
8893;SDS011;4483;48.622;9.230;2022-09-23T04:14:13;5.60;;;2.50;;
8893;SDS011;4483;48.622;9.230;2022-09-23T04:16:40;2.40;;;2.20;;
8893;SDS011;4483;48.622;9.230;2022-09-23T04:19:07;2.13;;;2.00;;
8893;SDS011;4483;48.622;9.230;2022-09-23T04:21:34;3.57;;;2.20;;
8893;SDS011;4483;48.622;9.230;2022-09-23T04:24:02;3.17;;;2.20;;
8893;SDS011;4483;48.622;9.230;2022-09-23T04:26:30;2.43;;;2.33;;
8893;SDS011;4483;48.622;9.230;2022-09-23T04:28:57;2.13;;;2.03;;
8893;SDS011;4483;48.622;9.230;2022-09-23T04:31:24;2.40;;;2.20;;
8893;SDS011;4483;48.622;9.230;2022-09-23T04:33:52;2.17;;;2.03;;
8893;SDS011;4483;48.622;9.230;2022-09-23T04:36:19;2.73;;;2.20;;
8893;SDS011;4483;48.622;9.230;2022-09-23T04:38:46;2.10;;;2.00;;
8893;SDS011;4483;48.622;9.230;2022-09-23T04:41:16;2.60;;;2.37;;
8893;SDS011;4483;48.622;9.230;2022-09-23T04:43:43;2.97;;;2.20;;
8893;SDS011;4483;48.622;9.230;2022-09-23T04:46:11;3.40;;;2.40;;
8893;SDS011;4483;48.622;9.230;2022-09-23T04:48:39;2.57;;;2.37;;
8893;SDS011;4483;48.622;9.230;2022-09-23T04:51:07;5.03;;;2.20;;
8893;SDS011;4483;48.622;9.230;2022-09-23T04:53:35;4.40;;;2.00;;
8893;SDS011;4483;48.622;9.230;2022-09-23T04:56:03;2.50;;;2.30;;
8893;SDS011;4483;48.622;9.230;2022-09-23T04:58:33;2.53;;;2.43;;
8893;SDS011;4483;48.622;9.230;2022-09-23T05:01:06;2.30;;;2.10;;
8893;SDS011;4483;48.622;9.230;2022-09-23T05:03:34;2.47;;;2.27;;
8893;SDS011;4483;48.622;9.230;2022-09-23T05:06:00;2.80;;;2.60;;
8893;SDS011;4483;48.622;9.230;2022-09-23T05:08:27;2.00;;;1.90;;
8893;SDS011;4483;48.622;9.230;2022-09-23T05:10:55;2.47;;;2.27;;
8893;SDS011;4483;48.622;9.230;2022-09-23T05:13:22;4.53;;;2.30;;
8893;SDS011;4483;48.622;9.230;2022-09-23T05:15:55;2.10;;;2.00;;
8893;SDS011;4483;48.622;9.230;2022-09-23T05:18:22;2.47;;;2.27;;
8893;SDS011;4483;48.622;9.230;2022-09-23T05:20:51;2.40;;;2.20;;
8893;SDS011;4483;48.622;9.230;2022-09-23T05:23:18;2.70;;;2.50;;
8893;SDS011;4483;48.622;9.230;2022-09-23T05:25:45;2.40;;;2.30;;
8893;SDS011;4483;48.622;9.230;2022-09-23T05:28:12;2.90;;;2.30;;
8893;SDS011;4483;48.622;9.230;2022-09-23T05:30:43;2.10;;;2.00;;
8893;SDS011;4483;48.622;9.230;2022-09-23T05:33:11;3.80;;;2.30;;
8893;SDS011;4483;48.622;9.230;2022-09-23T05:35:38;2.60;;;2.40;;
8893;SDS011;4483;48.622;9.230;2022-09-23T05:38:05;2.10;;;1.93;;
8893;SDS011;4483;48.622;9.230;2022-09-23T05:40:32;2.20;;;2.10;;
8893;SDS011;4483;48.622;9.230;2022-09-23T05:42:59;5.10;;;2.40;;
8893;SDS011;4483;48.622;9.230;2022-09-23T05:45:25;3.65;;;2.30;;
8893;SDS011;4483;48.622;9.230;2022-09-23T05:47:52;2.50;;;2.30;;
8893;SDS011;4483;48.622;9.230;2022-09-23T05:50:20;2.70;;;2.33;;
8893;SDS011;4483;48.622;9.230;2022-09-23T05:52:46;7.13;;;2.50;;
8893;SDS011;4483;48.622;9.230;2022-09-23T05:55:13;2.30;;;2.20;;
8893;SDS011;4483;48.622;9.230;2022-09-23T05:57:40;2.30;;;2.20;;
8893;SDS011;4483;48.622;9.230;2022-09-23T06:00:08;3.80;;;2.60;;
8893;SDS011;4483;48.622;9.230;2022-09-23T06:02:35;2.63;;;2.17;;
8893;SDS011;4483;48.622;9.230;2022-09-23T06:05:02;3.93;;;2.20;;
8893;SDS011;4483;48.622;9.230;2022-09-23T06:07:30;2.23;;;2.00;;
8893;SDS011;4483;48.622;9.230;2022-09-23T06:09:57;4.93;;;2.53;;
8893;SDS011;4483;48.622;9.230;2022-09-23T06:12:23;2.83;;;2.20;;
8893;SDS011;4483;48.622;9.230;2022-09-23T06:14:50;3.63;;;2.40;;
8893;SDS011;4483;48.622;9.230;2022-09-23T06:17:17;3.77;;;2.10;;
8893;SDS011;4483;48.622;9.230;2022-09-23T06:19:44;2.30;;;2.10;;
8893;SDS011;4483;48.622;9.230;2022-09-23T06:22:10;1.90;;;1.80;;
8893;SDS011;4483;48.622;9.230;2022-09-23T06:24:42;3.77;;;2.40;;
8893;SDS011;4483;48.622;9.230;2022-09-23T06:27:08;2.20;;;2.10;;
8893;SDS011;4483;48.622;9.230;2022-09-23T06:29:35;6.67;;;2.30;;
8893;SDS011;4483;48.622;9.230;2022-09-23T06:32:03;2.63;;;2.40;;
8893;SDS011;4483;48.622;9.230;2022-09-23T06:34:29;3.13;;;2.23;;
8893;SDS011;4483;48.622;9.230;2022-09-23T06:36:56;2.17;;;2.00;;
8893;SDS011;4483;48.622;9.230;2022-09-23T06:39:23;2.50;;;1.80;;
8893;SDS011;4483;48.622;9.230;2022-09-23T06:41:51;4.27;;;2.30;;
8893;SDS011;4483;48.622;9.230;2022-09-23T06:44:18;2.40;;;2.03;;
8893;SDS011;4483;48.622;9.230;2022-09-23T06:46:45;2.20;;;2.10;;
8893;SDS011;4483;48.622;9.230;2022-09-23T06:49:11;2.47;;;1.90;;
8893;SDS011;4483;48.622;9.230;2022-09-23T06:51:38;3.97;;;2.37;;
8893;SDS011;4483;48.622;9.230;2022-09-23T06:54:05;2.47;;;2.17;;
8893;SDS011;4483;48.622;9.230;2022-09-23T06:56:31;2.50;;;2.30;;
8893;SDS011;4483;48.622;9.230;2022-09-23T06:58:59;2.50;;;2.30;;
8893;SDS011;4483;48.622;9.230;2022-09-23T07:01:26;2.40;;;2.20;;
8893;SDS011;4483;48.622;9.230;2022-09-23T07:03:53;4.80;;;2.40;;
8893;SDS011;4483;48.622;9.230;2022-09-23T07:06:19;4.50;;;2.53;;
8893;SDS011;4483;48.622;9.230;2022-09-23T07:08:46;2.60;;;2.20;;
8893;SDS011;4483;48.622;9.230;2022-09-23T07:11:13;3.80;;;2.10;;
8893;SDS011;4483;48.622;9.230;2022-09-23T07:13:43;1.97;;;1.87;;
8893;SDS011;4483;48.622;9.230;2022-09-23T07:16:11;3.40;;;2.10;;
8893;SDS011;4483;48.622;9.230;2022-09-23T07:18:38;2.00;;;1.90;;
8893;SDS011;4483;48.622;9.230;2022-09-23T07:21:05;2.37;;;2.17;;
8893;SDS011;4483;48.622;9.230;2022-09-23T07:23:35;2.40;;;2.20;;
8893;SDS011;4483;48.622;9.230;2022-09-23T07:26:03;4.20;;;2.50;;
8893;SDS011;4483;48.622;9.230;2022-09-23T07:28:31;3.00;;;2.40;;
8893;SDS011;4483;48.622;9.230;2022-09-23T07:31:04;12.57;;;5.37;;
8893;SDS011;4483;48.622;9.230;2022-09-23T07:33:34;37.17;;;15.73;;
8893;SDS011;4483;48.622;9.230;2022-09-23T07:36:05;19.33;;;7.70;;
8893;SDS011;4483;48.622;9.230;2022-09-23T07:38:33;36.53;;;13.93;;
8893;SDS011;4483;48.622;9.230;2022-09-23T07:41:00;18.33;;;9.67;;
8893;SDS011;4483;48.622;9.230;2022-09-23T07:43:28;20.47;;;9.17;;
8893;SDS011;4483;48.622;9.230;2022-09-23T07:45:56;11.27;;;6.83;;
8893;SDS011;4483;48.622;9.230;2022-09-23T07:48:23;9.63;;;5.27;;
8893;SDS011;4483;48.622;9.230;2022-09-23T07:50:51;7.57;;;5.03;;
8893;SDS011;4483;48.622;9.230;2022-09-23T07:53:18;6.50;;;4.10;;
8893;SDS011;4483;48.622;9.230;2022-09-23T07:55:50;4.47;;;3.70;;
8893;SDS011;4483;48.622;9.230;2022-09-23T07:58:17;5.63;;;3.10;;
8893;SDS011;4483;48.622;9.230;2022-09-23T08:00:44;4.43;;;2.90;;
8893;SDS011;4483;48.622;9.230;2022-09-23T08:03:10;2.63;;;2.43;;
8893;SDS011;4483;48.622;9.230;2022-09-23T08:05:38;3.77;;;2.73;;
8893;SDS011;4483;48.622;9.230;2022-09-23T08:08:06;4.50;;;2.63;;
8893;SDS011;4483;48.622;9.230;2022-09-23T08:10:33;2.93;;;2.67;;
8893;SDS011;4483;48.622;9.230;2022-09-23T08:13:00;2.97;;;2.77;;
8893;SDS011;4483;48.622;9.230;2022-09-23T08:15:27;3.03;;;2.53;;
8893;SDS011;4483;48.622;9.230;2022-09-23T08:17:56;2.80;;;2.60;;
8893;SDS011;4483;48.622;9.230;2022-09-23T08:20:23;2.87;;;2.67;;
8893;SDS011;4483;48.622;9.230;2022-09-23T08:23:09;2.60;;;2.40;;
8893;SDS011;4483;48.622;9.230;2022-09-23T08:25:36;2.90;;;2.70;;
8893;SDS011;4483;48.622;9.230;2022-09-23T08:28:03;2.80;;;2.60;;
8893;SDS011;4483;48.622;9.230;2022-09-23T08:30:29;3.70;;;3.00;;
8893;SDS011;4483;48.622;9.230;2022-09-23T08:32:56;3.60;;;3.00;;
8893;SDS011;4483;48.622;9.230;2022-09-23T08:35:23;4.83;;;2.90;;
8893;SDS011;4483;48.622;9.230;2022-09-23T08:37:49;4.63;;;3.10;;
8893;SDS011;4483;48.622;9.230;2022-09-23T08:40:18;3.63;;;3.20;;
8893;SDS011;4483;48.622;9.230;2022-09-23T08:42:44;3.10;;;2.90;;
8893;SDS011;4483;48.622;9.230;2022-09-23T08:45:14;3.97;;;3.30;;
8893;SDS011;4483;48.622;9.230;2022-09-23T08:47:44;3.67;;;3.40;;
8893;SDS011;4483;48.622;9.230;2022-09-23T08:50:16;4.70;;;3.20;;
8893;SDS011;4483;48.622;9.230;2022-09-23T08:52:47;3.20;;;3.00;;
8893;SDS011;4483;48.622;9.230;2022-09-23T08:55:16;2.93;;;2.73;;
8893;SDS011;4483;48.622;9.230;2022-09-23T08:57:48;3.10;;;2.90;;
8893;SDS011;4483;48.622;9.230;2022-09-23T09:00:29;7.13;;;4.20;;
8893;SDS011;4483;48.622;9.230;2022-09-23T09:03:02;6.87;;;4.47;;
8893;SDS011;4483;48.622;9.230;2022-09-23T09:05:39;31.33;;;10.97;;
8893;SDS011;4483;48.622;9.230;2022-09-23T09:08:07;28.07;;;9.00;;
8893;SDS011;4483;48.622;9.230;2022-09-23T09:10:38;27.50;;;10.60;;
8893;SDS011;4483;48.622;9.230;2022-09-23T09:13:10;18.23;;;7.50;;
8893;SDS011;4483;48.622;9.230;2022-09-23T09:15:50;17.03;;;7.20;;
8893;SDS011;4483;48.622;9.230;2022-09-23T09:18:36;13.33;;;6.53;;
8893;SDS011;4483;48.622;9.230;2022-09-23T09:21:13;6.90;;;4.20;;
8893;SDS011;4483;48.622;9.230;2022-09-23T09:23:42;6.07;;;4.00;;
8893;SDS011;4483;48.622;9.230;2022-09-23T09:26:15;5.40;;;3.60;;
8893;SDS011;4483;48.622;9.230;2022-09-23T09:28:45;4.10;;;3.07;;
8893;SDS011;4483;48.622;9.230;2022-09-23T09:31:18;5.27;;;3.00;;
8893;SDS011;4483;48.622;9.230;2022-09-23T09:33:52;3.73;;;3.40;;
8893;SDS011;4483;48.622;9.230;2022-09-23T09:36:27;4.23;;;3.43;;
8893;SDS011;4483;48.622;9.230;2022-09-23T09:39:01;5.53;;;3.10;;
8893;SDS011;4483;48.622;9.230;2022-09-23T09:41:30;4.70;;;3.40;;
8893;SDS011;4483;48.622;9.230;2022-09-23T09:43:57;3.40;;;3.10;;
8893;SDS011;4483;48.622;9.230;2022-09-23T09:49:17;3.57;;;2.93;;
8893;SDS011;4483;48.622;9.230;2022-09-23T09:54:38;6.83;;;3.37;;
8893;SDS011;4483;48.622;9.230;2022-09-23T09:57:18;3.40;;;3.13;;
8893;SDS011;4483;48.622;9.230;2022-09-23T09:59:54;3.00;;;2.80;;
8893;SDS011;4483;48.622;9.230;2022-09-23T10:02:23;3.17;;;2.92;;
8893;SDS011;4483;48.622;9.230;2022-09-23T10:04:57;3.20;;;2.97;;
8893;SDS011;4483;48.622;9.230;2022-09-23T10:07:27;5.88;;;3.10;;
8893;SDS011;4483;48.622;9.230;2022-09-23T10:09:55;3.03;;;2.83;;
8893;SDS011;4483;48.622;9.230;2022-09-23T10:12:24;4.75;;;2.75;;
8893;SDS011;4483;48.622;9.230;2022-09-23T10:14:55;3.13;;;2.92;;
8893;SDS011;4483;48.622;9.230;2022-09-23T10:17:23;3.17;;;2.88;;
8893;SDS011;4483;48.622;9.230;2022-09-23T10:19:56;3.28;;;2.95;;
8893;SDS011;4483;48.622;9.230;2022-09-23T10:22:25;3.03;;;2.72;;
8893;SDS011;4483;48.622;9.230;2022-09-23T10:24:57;3.95;;;2.55;;
8893;SDS011;4483;48.622;9.230;2022-09-23T10:27:29;3.03;;;2.75;;
8893;SDS011;4483;48.622;9.230;2022-09-23T10:29:58;3.30;;;3.00;;
8893;SDS011;4483;48.622;9.230;2022-09-23T10:32:28;3.00;;;2.80;;
8893;SDS011;4483;48.622;9.230;2022-09-23T10:35:00;5.55;;;2.90;;
8893;SDS011;4483;48.622;9.230;2022-09-23T10:37:30;4.75;;;2.80;;
8893;SDS011;4483;48.622;9.230;2022-09-23T10:39:59;3.38;;;3.00;;
8893;SDS011;4483;48.622;9.230;2022-09-23T10:42:58;4.20;;;2.83;;
8893;SDS011;4483;48.622;9.230;2022-09-23T10:46:04;3.97;;;2.90;;
8893;SDS011;4483;48.622;9.230;2022-09-23T10:48:52;3.25;;;2.92;;
8893;SDS011;4483;48.622;9.230;2022-09-23T10:51:34;2.58;;;2.40;;
8893;SDS011;4483;48.622;9.230;2022-09-23T10:54:10;3.17;;;2.83;;
8893;SDS011;4483;48.622;9.230;2022-09-23T10:56:45;3.45;;;2.78;;
8893;SDS011;4483;48.622;9.230;2022-09-23T10:59:29;3.30;;;3.05;;
8893;SDS011;4483;48.622;9.230;2022-09-23T11:02:13;3.55;;;3.17;;
8893;SDS011;4483;48.622;9.230;2022-09-23T11:05:02;5.03;;;3.40;;
8893;SDS011;4483;48.622;9.230;2022-09-23T11:07:43;2.90;;;2.70;;
8893;SDS011;4483;48.622;9.230;2022-09-23T11:10:18;3.80;;;3.40;;
8893;SDS011;4483;48.622;9.230;2022-09-23T11:12:57;3.63;;;3.17;;
8893;SDS011;4483;48.622;9.230;2022-09-23T11:15:37;3.15;;;2.83;;
8893;SDS011;4483;48.622;9.230;2022-09-23T11:18:22;4.00;;;3.17;;
8893;SDS011;4483;48.622;9.230;2022-09-23T11:21:16;3.83;;;3.53;;
8893;SDS011;4483;48.622;9.230;2022-09-23T11:24:02;4.88;;;3.88;;
8893;SDS011;4483;48.622;9.230;2022-09-23T11:26:44;3.70;;;3.40;;
8893;SDS011;4483;48.622;9.230;2022-09-23T11:29:38;4.30;;;3.30;;
8893;SDS011;4483;48.622;9.230;2022-09-23T11:32:24;3.28;;;3.08;;
8893;SDS011;4483;48.622;9.230;2022-09-23T11:35:10;3.53;;;3.20;;
8893;SDS011;4483;48.622;9.230;2022-09-23T11:37:42;5.20;;;2.80;;
8893;SDS011;4483;48.622;9.230;2022-09-23T11:40:13;2.88;;;2.67;;
8893;SDS011;4483;48.622;9.230;2022-09-23T11:42:45;3.45;;;3.13;;
8893;SDS011;4483;48.622;9.230;2022-09-23T11:45:19;3.55;;;3.25;;
8893;SDS011;4483;48.622;9.230;2022-09-23T11:47:51;4.43;;;2.85;;
8893;SDS011;4483;48.622;9.230;2022-09-23T11:50:24;4.65;;;2.90;;
8893;SDS011;4483;48.622;9.230;2022-09-23T11:52:56;2.85;;;2.65;;
8893;SDS011;4483;48.622;9.230;2022-09-23T11:55:29;5.07;;;2.95;;
8893;SDS011;4483;48.622;9.230;2022-09-23T11:57:59;3.45;;;2.50;;
8893;SDS011;4483;48.622;9.230;2022-09-23T12:00:32;2.83;;;2.40;;
8893;SDS011;4483;48.622;9.230;2022-09-23T12:03:06;3.70;;;2.30;;
8893;SDS011;4483;48.622;9.230;2022-09-23T12:05:43;2.83;;;2.53;;
8893;SDS011;4483;48.622;9.230;2022-09-23T12:08:14;5.45;;;2.53;;
8893;SDS011;4483;48.622;9.230;2022-09-23T12:10:51;2.38;;;2.17;;
8893;SDS011;4483;48.622;9.230;2022-09-23T12:13:24;4.03;;;2.20;;
8893;SDS011;4483;48.622;9.230;2022-09-23T12:16:03;4.15;;;3.20;;
8893;SDS011;4483;48.622;9.230;2022-09-23T12:18:51;10.15;;;5.43;;
8893;SDS011;4483;48.622;9.230;2022-09-23T12:21:37;2.60;;;2.13;;
8893;SDS011;4483;48.622;9.230;2022-09-23T12:24:33;2.75;;;2.15;;
8893;SDS011;4483;48.622;9.230;2022-09-23T12:27:25;5.05;;;2.50;;
8893;SDS011;4483;48.622;9.230;2022-09-23T12:29:58;2.00;;;1.90;;
8893;SDS011;4483;48.622;9.230;2022-09-23T12:32:30;5.95;;;2.42;;
8893;SDS011;4483;48.622;9.230;2022-09-23T12:34:59;3.38;;;2.20;;
8893;SDS011;4483;48.622;9.230;2022-09-23T12:37:27;4.55;;;2.33;;
8893;SDS011;4483;48.622;9.230;2022-09-23T12:40:00;3.92;;;2.47;;
8893;SDS011;4483;48.622;9.230;2022-09-23T12:42:33;3.80;;;2.63;;
8893;SDS011;4483;48.622;9.230;2022-09-23T12:45:15;3.00;;;2.70;;
8893;SDS011;4483;48.622;9.230;2022-09-23T12:51:13;2.78;;;2.42;;
8893;SDS011;4483;48.622;9.230;2022-09-23T12:53:49;3.78;;;2.13;;
8893;SDS011;4483;48.622;9.230;2022-09-23T12:56:23;2.80;;;2.35;;
8893;SDS011;4483;48.622;9.230;2022-09-23T13:01:56;3.03;;;2.22;;
8893;SDS011;4483;48.622;9.230;2022-09-23T13:04:42;4.43;;;2.40;;
8893;SDS011;4483;48.622;9.230;2022-09-23T13:07:25;2.80;;;2.60;;
8893;SDS011;4483;48.622;9.230;2022-09-23T13:09:56;5.78;;;2.50;;
8893;SDS011;4483;48.622;9.230;2022-09-23T13:12:29;3.85;;;2.35;;
8893;SDS011;4483;48.622;9.230;2022-09-23T13:15:02;3.28;;;2.20;;
8893;SDS011;4483;48.622;9.230;2022-09-23T13:17:31;2.35;;;2.15;;
8893;SDS011;4483;48.622;9.230;2022-09-23T13:20:02;4.15;;;2.22;;
8893;SDS011;4483;48.622;9.230;2022-09-23T13:22:57;2.75;;;2.03;;
8893;SDS011;4483;48.622;9.230;2022-09-23T13:25:30;3.30;;;2.17;;
8893;SDS011;4483;48.622;9.230;2022-09-23T13:28:00;3.75;;;1.75;;
8893;SDS011;4483;48.622;9.230;2022-09-23T13:30:28;6.90;;;2.08;;
8893;SDS011;4483;48.622;9.230;2022-09-23T13:32:59;3.70;;;2.25;;
8893;SDS011;4483;48.622;9.230;2022-09-23T13:35:31;5.20;;;1.98;;
8893;SDS011;4483;48.622;9.230;2022-09-23T13:38:09;2.42;;;2.22;;
8893;SDS011;4483;48.622;9.230;2022-09-23T13:40:36;2.40;;;2.20;;
8893;SDS011;4483;48.622;9.230;2022-09-23T13:43:07;2.00;;;1.90;;
8893;SDS011;4483;48.622;9.230;2022-09-23T13:45:41;2.78;;;1.90;;
8893;SDS011;4483;48.622;9.230;2022-09-23T13:48:10;2.72;;;2.40;;
8893;SDS011;4483;48.622;9.230;2022-09-23T13:50:42;3.45;;;2.25;;
8893;SDS011;4483;48.622;9.230;2022-09-23T13:53:12;2.53;;;1.95;;
8893;SDS011;4483;48.622;9.230;2022-09-23T13:55:45;4.30;;;2.00;;
8893;SDS011;4483;48.622;9.230;2022-09-23T13:58:16;1.90;;;1.80;;
8893;SDS011;4483;48.622;9.230;2022-09-23T14:00:46;2.33;;;2.10;;
8893;SDS011;4483;48.622;9.230;2022-09-23T14:03:17;4.53;;;2.05;;
8893;SDS011;4483;48.622;9.230;2022-09-23T14:05:49;4.68;;;2.35;;
8893;SDS011;4483;48.622;9.230;2022-09-23T14:08:18;5.07;;;3.08;;
8893;SDS011;4483;48.622;9.230;2022-09-23T14:10:45;7.30;;;2.50;;
8893;SDS011;4483;48.622;9.230;2022-09-23T14:13:13;2.63;;;2.42;;
8893;SDS011;4483;48.622;9.230;2022-09-23T14:15:42;3.30;;;2.67;;
8893;SDS011;4483;48.622;9.230;2022-09-23T14:18:12;3.05;;;2.75;;
8893;SDS011;4483;48.622;9.230;2022-09-23T14:20:46;3.58;;;2.90;;
8893;SDS011;4483;48.622;9.230;2022-09-23T14:23:14;4.25;;;2.30;;
8893;SDS011;4483;48.622;9.230;2022-09-23T14:25:42;5.18;;;2.83;;
8893;SDS011;4483;48.622;9.230;2022-09-23T14:28:12;2.83;;;2.70;;
8893;SDS011;4483;48.622;9.230;2022-09-23T14:30:42;4.10;;;2.83;;
8893;SDS011;4483;48.622;9.230;2022-09-23T14:33:12;3.85;;;2.50;;
8893;SDS011;4483;48.622;9.230;2022-09-23T14:35:43;4.78;;;2.55;;
8893;SDS011;4483;48.622;9.230;2022-09-23T14:38:18;3.95;;;2.92;;
8893;SDS011;4483;48.622;9.230;2022-09-23T14:41:10;6.05;;;2.83;;
8893;SDS011;4483;48.622;9.230;2022-09-23T14:43:45;3.15;;;2.85;;
8893;SDS011;4483;48.622;9.230;2022-09-23T14:46:15;3.55;;;3.08;;
8893;SDS011;4483;48.622;9.230;2022-09-23T14:48:49;3.42;;;2.88;;
8893;SDS011;4483;48.622;9.230;2022-09-23T14:51:19;3.42;;;3.08;;
8893;SDS011;4483;48.622;9.230;2022-09-23T14:53:46;3.15;;;2.90;;
8893;SDS011;4483;48.622;9.230;2022-09-23T14:56:15;3.10;;;2.88;;
8893;SDS011;4483;48.622;9.230;2022-09-23T14:58:45;2.90;;;2.70;;
8893;SDS011;4483;48.622;9.230;2022-09-23T15:01:22;5.18;;;2.67;;
8893;SDS011;4483;48.622;9.230;2022-09-23T15:03:51;2.70;;;2.45;;
8893;SDS011;4483;48.622;9.230;2022-09-23T15:06:18;3.33;;;2.60;;
8893;SDS011;4483;48.622;9.230;2022-09-23T15:08:48;5.28;;;2.40;;
8893;SDS011;4483;48.622;9.230;2022-09-23T15:11:17;2.70;;;2.50;;
8893;SDS011;4483;48.622;9.230;2022-09-23T15:13:45;2.35;;;2.20;;
8893;SDS011;4483;48.622;9.230;2022-09-23T15:16:15;5.30;;;2.45;;
8893;SDS011;4483;48.622;9.230;2022-09-23T15:18:52;3.22;;;2.75;;
8893;SDS011;4483;48.622;9.230;2022-09-23T15:21:19;3.72;;;2.50;;
8893;SDS011;4483;48.622;9.230;2022-09-23T15:23:48;2.60;;;2.40;;
8893;SDS011;4483;48.622;9.230;2022-09-23T15:26:18;3.95;;;2.67;;
8893;SDS011;4483;48.622;9.230;2022-09-23T15:28:47;5.35;;;2.65;;
8893;SDS011;4483;48.622;9.230;2022-09-23T15:31:15;7.10;;;2.60;;
8893;SDS011;4483;48.622;9.230;2022-09-23T15:33:43;2.72;;;2.53;;
8893;SDS011;4483;48.622;9.230;2022-09-23T15:36:10;6.18;;;2.70;;
8893;SDS011;4483;48.622;9.230;2022-09-23T15:38:42;7.57;;;3.05;;
8893;SDS011;4483;48.622;9.230;2022-09-23T15:41:09;6.63;;;2.55;;
8893;SDS011;4483;48.622;9.230;2022-09-23T15:43:37;4.28;;;2.67;;
8893;SDS011;4483;48.622;9.230;2022-09-23T15:46:06;2.75;;;2.55;;
8893;SDS011;4483;48.622;9.230;2022-09-23T15:48:35;2.70;;;2.50;;
8893;SDS011;4483;48.622;9.230;2022-09-23T15:51:04;2.63;;;2.42;;
8893;SDS011;4483;48.622;9.230;2022-09-23T15:53:34;4.43;;;2.90;;